createdAt,value
2023-01-23T00:01:13.722Z,8.03
2023-01-23T00:06:18.291Z,11.50
2023-01-23T00:11:23.351Z,13.33
2023-01-23T00:16:28.853Z,10.10
2023-01-23T00:21:32.229Z,9.33
2023-01-23T00:26:34.571Z,8.67
2023-01-23T00:31:39.951Z,9.53
2023-01-23T00:36:43.973Z,9.27
2023-01-23T00:41:47.332Z,9.63
2023-01-23T00:46:50.729Z,8.63
2023-01-23T00:51:53.288Z,9.77
2023-01-23T00:56:55.879Z,9.43
2023-01-23T01:01:59.821Z,8.57
2023-01-23T01:07:02.007Z,8.70
2023-01-23T01:12:04.416Z,8.97
2023-01-23T01:17:08.465Z,9.43
2023-01-23T01:22:10.529Z,9.27
2023-01-23T01:27:12.912Z,9.63
2023-01-23T01:32:16.659Z,9.20
2023-01-23T01:37:20.391Z,8.87
2023-01-23T01:42:22.709Z,9.33
2023-01-23T01:47:26.398Z,9.40
2023-01-23T01:52:28.980Z,9.20
2023-01-23T01:57:36.263Z,9.97
2023-01-23T02:02:46.287Z,9.40
2023-01-23T02:07:54.556Z,9.50
2023-01-23T02:12:56.974Z,8.93
2023-01-23T02:18:00.918Z,9.20
2023-01-23T02:23:10.920Z,8.87
2023-01-23T02:28:17.071Z,9.50
2023-01-23T02:33:51.597Z,9.20
2023-01-23T02:39:04.081Z,9.87
2023-01-23T02:44:13.764Z,8.87
2023-01-23T02:49:15.992Z,10.03
2023-01-23T02:54:19.453Z,9.50
2023-01-23T02:59:40.293Z,9.97
2023-01-23T03:04:42.339Z,9.43
2023-01-23T03:09:46.448Z,9.30
2023-01-23T03:14:54.416Z,10.13
2023-01-23T03:19:57.970Z,9.97
2023-01-23T03:25:01.601Z,8.57
2023-01-23T03:30:16.079Z,9.07
2023-01-23T03:35:20.512Z,9.50
2023-01-23T03:40:42.460Z,9.40
2023-01-23T03:45:46.290Z,9.87
2023-01-23T03:50:48.365Z,10.17
2023-01-23T03:55:50.770Z,9.83
2023-01-23T04:00:54.395Z,10.00
2023-01-23T04:06:00.450Z,10.17
2023-01-23T04:11:04.308Z,10.80
2023-01-23T04:16:09.079Z,9.93
2023-01-23T04:21:11.170Z,10.30
2023-01-23T04:26:13.902Z,9.70
2023-01-23T04:31:17.488Z,9.97
2023-01-23T04:36:19.487Z,10.37
2023-01-23T04:41:23.147Z,10.27
2023-01-23T04:46:26.608Z,10.83
2023-01-23T04:51:28.795Z,10.43
2023-01-23T04:56:31.274Z,10.13
2023-01-23T05:01:35.128Z,9.23
2023-01-23T05:06:37.640Z,10.47
2023-01-23T05:11:39.980Z,10.47
2023-01-23T05:16:43.237Z,9.33
2023-01-23T05:21:45.348Z,11.33
2023-01-23T05:26:47.305Z,10.13
2023-01-23T05:31:51.139Z,11.13
2023-01-23T05:36:53.309Z,10.50
2023-01-23T05:41:55.277Z,10.53
2023-01-23T05:46:59.139Z,12.17
2023-01-23T05:52:01.392Z,12.07
2023-01-23T05:57:03.208Z,11.43
2023-01-23T06:02:06.522Z,13.90
2023-01-23T06:07:14.034Z,13.97
2023-01-23T06:12:16.325Z,12.87
2023-01-23T06:17:20.281Z,11.73
2023-01-23T06:22:22.591Z,11.63
2023-01-23T06:27:24.576Z,10.33
2023-01-23T06:32:27.901Z,11.13
2023-01-23T06:37:30.093Z,11.27
2023-01-23T06:42:32.629Z,10.80
2023-01-23T06:47:35.826Z,9.90
2023-01-23T06:52:37.961Z,10.27
2023-01-23T06:57:41.082Z,9.70
2023-01-23T07:02:45.715Z,9.07
2023-01-23T07:07:48.267Z,9.30
2023-01-23T07:12:50.772Z,9.93
2023-01-23T07:17:54.966Z,10.47
2023-01-23T07:22:57.694Z,8.77
2023-01-23T07:27:59.918Z,10.40
2023-01-23T07:33:03.436Z,9.50
2023-01-23T07:38:05.438Z,9.40
2023-01-23T07:43:07.826Z,8.87
2023-01-23T07:48:12.121Z,9.57
2023-01-23T07:53:14.480Z,9.27
2023-01-23T07:58:16.875Z,9.27
2023-01-23T08:03:21.301Z,10.03
2023-01-23T08:08:23.455Z,9.70
2023-01-23T08:13:25.928Z,9.07
2023-01-23T08:18:31.374Z,8.50
2023-01-23T08:23:36.024Z,8.53
2023-01-23T08:28:38.436Z,9.17
2023-01-23T08:33:42.487Z,8.47
2023-01-23T08:38:44.790Z,9.80
2023-01-23T08:43:47.275Z,12.90
2023-01-23T08:48:51.020Z,14.07
2023-01-23T08:53:54.189Z,15.37
2023-01-23T08:58:56.183Z,10.27
2023-01-23T09:03:59.911Z,8.97
2023-01-23T09:09:01.909Z,8.73
2023-01-23T09:14:03.804Z,8.93
2023-01-23T09:19:08.329Z,9.10
2023-01-23T09:24:10.618Z,9.87
2023-01-23T09:29:13.043Z,10.13
2023-01-23T09:34:17.388Z,9.67
2023-01-23T09:39:20.940Z,9.07
2023-01-23T09:44:34.303Z,9.07
2023-01-23T09:49:46.195Z,9.40
2023-01-23T09:54:50.913Z,9.47
2023-01-23T10:00:00.389Z,8.60
2023-01-23T10:05:04.747Z,8.93
2023-01-23T10:10:50.557Z,9.60
2023-01-23T10:16:24.666Z,8.33
2023-01-23T10:21:35.742Z,8.87
2023-01-23T10:26:44.429Z,9.63
2023-01-23T10:31:51.459Z,8.40
2023-01-23T10:37:18.158Z,8.80
2023-01-23T10:42:24.001Z,8.00
2023-01-23T10:47:33.606Z,9.10
2023-01-23T10:52:42.526Z,7.93
2023-01-23T10:57:49.249Z,8.53
2023-01-23T11:02:52.103Z,8.30
2023-01-23T11:07:57.014Z,8.23
2023-01-23T11:13:00.942Z,8.57
2023-01-23T11:18:03.525Z,9.17
2023-01-23T11:23:17.313Z,9.47
2023-01-23T11:28:25.068Z,9.10
2023-01-23T11:33:40.820Z,8.07
2023-01-23T11:38:53.007Z,8.67
2023-01-23T11:43:55.558Z,6.97
2023-01-23T11:49:20.131Z,9.07
2023-01-23T11:54:40.937Z,9.10
2023-01-23T11:59:52.517Z,8.20
2023-01-23T12:05:14.100Z,9.07
2023-01-23T12:10:25.740Z,7.77
2023-01-23T12:15:37.583Z,9.40
2023-01-23T12:20:49.624Z,8.90
2023-01-23T12:26:04.672Z,9.07
2023-01-23T12:31:26.052Z,8.73
2023-01-23T12:37:09.929Z,8.77
2023-01-23T12:42:21.301Z,9.30
2023-01-23T12:47:28.488Z,7.93
2023-01-23T12:52:36.948Z,8.60
2023-01-23T12:58:08.592Z,8.37
2023-01-23T13:03:22.801Z,9.00
2023-01-23T13:08:37.824Z,8.07
2023-01-23T13:13:42.602Z,8.63
2023-01-23T13:19:12.065Z,7.83
2023-01-23T13:24:49.478Z,8.37
2023-01-23T13:29:53.305Z,8.40
2023-01-23T13:34:55.671Z,8.07
2023-01-23T13:40:06.825Z,8.73
2023-01-23T13:45:31.495Z,8.33
2023-01-23T14:23:52.707Z,8.03
2023-01-23T14:29:00.593Z,8.40
2023-01-23T14:34:10.431Z,8.00
2023-01-23T14:39:19.089Z,7.73
2023-01-23T14:44:23.736Z,7.83
2023-01-23T14:49:30.991Z,7.93
2023-01-23T14:54:34.631Z,8.20
2023-01-23T14:59:40.271Z,7.80
2023-01-23T15:04:43.706Z,8.87
2023-01-23T15:09:46.699Z,7.87
2023-01-23T15:14:53.656Z,7.90
2023-01-23T15:19:57.083Z,8.30
2023-01-23T15:25:18.515Z,7.73
2023-01-23T15:30:41.902Z,7.50
2023-01-23T15:35:45.348Z,7.83
2023-01-23T15:40:47.987Z,8.10
2023-01-23T15:45:50.098Z,8.23
2023-01-23T15:50:55.721Z,7.70
2023-01-23T15:55:57.819Z,8.00
2023-01-23T16:01:00.441Z,8.43
2023-01-23T16:06:06.280Z,8.37
2023-01-23T16:11:08.534Z,8.53
2023-01-23T16:16:15.293Z,9.00
2023-01-23T16:21:20.691Z,8.30
2023-01-23T16:26:24.935Z,13.60
2023-01-23T16:31:28.117Z,11.53
2023-01-23T16:36:31.930Z,11.23
2023-01-23T16:41:34.091Z,12.70
2023-01-23T16:46:36.845Z,10.40
2023-01-23T16:51:44.913Z,11.77
2023-01-23T16:56:51.070Z,10.60
2023-01-23T17:01:53.830Z,9.90
2023-01-23T17:06:58.234Z,9.33
2023-01-23T17:12:01.316Z,10.43
2023-01-23T17:17:07.982Z,9.80
2023-01-23T17:22:21.107Z,9.00
2023-01-23T17:27:23.947Z,9.80
2023-01-23T17:32:32.837Z,11.37
2023-01-23T17:37:38.161Z,10.87
2023-01-23T17:42:40.635Z,11.17
2023-01-23T17:47:45.162Z,16.13
2023-01-23T17:52:50.707Z,19.23
2023-01-23T17:57:53.413Z,16.90
2023-01-23T18:02:59.579Z,17.70
2023-01-23T18:08:04.102Z,13.83
2023-01-23T18:13:20.833Z,12.57
2023-01-23T18:18:31.375Z,11.57
2023-01-23T18:23:37.510Z,12.10
2023-01-23T18:28:58.369Z,11.47
2023-01-23T18:34:13.714Z,12.37
2023-01-23T18:39:46.839Z,11.33
2023-01-23T18:44:57.512Z,8.93
2023-01-23T18:50:02.130Z,9.37
2023-01-23T18:55:17.821Z,10.03
2023-01-23T19:00:28.891Z,13.50
2023-01-23T19:05:34.364Z,10.60
2023-01-23T19:10:48.999Z,11.43
2023-01-23T19:16:06.658Z,11.17
2023-01-23T19:21:24.990Z,12.97
2023-01-23T19:26:38.430Z,10.13
2023-01-23T19:32:03.015Z,12.07
2023-01-23T19:37:12.461Z,11.00
2023-01-23T19:42:18.824Z,10.83
2023-01-23T19:47:22.699Z,9.40
2023-01-23T19:52:27.371Z,11.03
2023-01-23T19:57:32.052Z,10.63
2023-01-23T20:08:33.213Z,10.20
2023-01-23T20:13:53.721Z,11.83
2023-01-23T20:18:58.087Z,11.40
2023-01-23T20:24:15.687Z,12.90
2023-01-23T20:29:21.167Z,12.20
2023-01-23T20:34:25.281Z,11.73
2023-01-23T20:39:29.005Z,10.73
2023-01-23T20:44:34.015Z,10.87
2023-01-23T20:49:38.198Z,9.60
2023-01-23T20:54:44.213Z,9.37
2023-01-23T20:59:49.111Z,9.73
2023-01-23T21:04:55.483Z,9.50
2023-01-23T21:09:58.402Z,9.73
2023-01-23T21:15:02.543Z,9.90
2023-01-23T21:20:05.717Z,9.20
2023-01-23T21:25:10.038Z,8.53
2023-01-23T21:30:14.904Z,8.77
2023-01-23T21:35:17.343Z,7.70
2023-01-23T21:40:20.428Z,8.23
2023-01-23T21:45:24.355Z,8.57
2023-01-23T21:50:26.682Z,8.77
2023-01-23T21:55:28.975Z,8.67
2023-01-23T22:00:46.121Z,8.00
2023-01-23T22:05:49.451Z,8.37
2023-01-23T22:10:52.117Z,6.97
2023-01-23T22:15:55.622Z,7.20
2023-01-23T22:20:58.673Z,7.70
2023-01-23T22:26:02.746Z,7.93
2023-01-23T22:31:12.142Z,9.73
2023-01-23T22:36:15.905Z,10.00
2023-01-23T22:41:18.611Z,10.33
2023-01-23T22:46:22.431Z,8.83
2023-01-23T22:51:26.495Z,7.93
2023-01-23T22:56:29.835Z,7.20
2023-01-23T23:01:33.827Z,9.20
2023-01-23T23:06:35.815Z,8.07
2023-01-23T23:11:38.248Z,8.20
2023-01-23T23:16:42.331Z,8.30
2023-01-23T23:21:44.706Z,7.17
2023-01-23T23:26:48.186Z,8.10
2023-01-23T23:31:52.472Z,7.73
2023-01-23T23:36:54.578Z,7.07
2023-01-23T23:41:56.454Z,7.30
2023-01-23T23:46:59.666Z,8.17
2023-01-23T23:52:01.754Z,7.93
2023-01-23T23:57:03.647Z,6.87
